Time;durP1;ratioP1;P1;durP2;ratioP2;P2;SDS_P1;SDS_P2;PMS_P1;PMS_P2;Temp;Humidity;BMP_temperature;BMP_pressure;BME280_temperature;BME280_humidity;BME280_pressure;Samples;Min_cycle;Max_cycle;Signal;HPM_P1;HPM_P2
2022/06/29 00:00:23;;;;;;;2.08;1.15;;;19.20;59.10;;;;;;9185247;19;20014;-65
2022/06/29 00:03:29;;;;;;;1.83;1.40;;;19.20;59.20;;;;;;9184533;19;20021;-64
2022/06/29 00:06:36;;;;;;;5.88;1.48;;;19.20;59.30;;;;;;9185886;19;20018;-64
2022/06/29 00:09:41;;;;;;;3.53;1.20;;;19.20;59.40;;;;;;9186469;19;20026;-64
2022/06/29 00:12:48;;;;;;;5.57;1.65;;;19.10;59.30;;;;;;9186352;19;20011;-65
2022/06/29 00:15:52;;;;;;;4.25;1.10;;;19.10;59.40;;;;;;9185381;19;20736;-65
2022/06/29 00:18:58;;;;;;;6.57;1.52;;;19.10;59.40;;;;;;9180945;19;20006;-65
2022/06/29 00:22:07;;;;;;;6.22;1.10;;;19.10;59.60;;;;;;9185635;19;20015;-65
2022/06/29 00:25:13;;;;;;;4.40;1.52;;;19.10;59.70;;;;;;9183613;19;20637;-65
2022/06/29 00:28:18;;;;;;;5.40;2.08;;;19.00;59.60;;;;;;9183210;19;20015;-64
2022/06/29 00:31:23;;;;;;;4.28;1.30;;;19.00;59.60;;;;;;9182669;19;20022;-64
2022/06/29 00:34:30;;;;;;;5.75;1.38;;;19.00;59.70;;;;;;9185818;19;20030;-65
2022/06/29 00:37:37;;;;;;;6.10;1.45;;;18.90;59.70;;;;;;9185643;19;20022;-64
2022/06/29 00:40:43;;;;;;;4.75;1.48;;;18.90;59.80;;;;;;9183334;19;20018;-64
2022/06/29 00:43:48;;;;;;;4.50;1.10;;;18.90;59.90;;;;;;9181812;19;20010;-64
2022/06/29 00:46:55;;;;;;;5.72;1.50;;;18.90;59.80;;;;;;9183319;19;20018;-64
2022/06/29 00:50:00;;;;;;;6.40;1.35;;;18.80;59.80;;;;;;9180872;19;20014;-66
2022/06/29 00:53:09;;;;;;;3.75;1.30;;;18.80;59.90;;;;;;9182312;19;20020;-65
2022/06/29 00:56:15;;;;;;;4.30;1.55;;;18.80;60.00;;;;;;9184643;19;20482;-66
2022/06/29 00:59:22;;;;;;;3.67;1.70;;;18.70;60.00;;;;;;9183094;19;20407;-65
2022/06/29 01:02:32;;;;;;;3.40;1.15;;;18.70;60.10;;;;;;9183940;19;20018;-65
2022/06/29 01:05:37;;;;;;;4.15;1.50;;;18.70;60.20;;;;;;9180859;19;20010;-65
2022/06/29 01:08:45;;;;;;;2.58;1.10;;;18.70;60.10;;;;;;9182866;19;20014;-65
2022/06/29 01:11:51;;;;;;;2.42;1.45;;;18.60;60.20;;;;;;9182616;19;20030;-65
2022/06/29 01:14:57;;;;;;;2.45;1.30;;;18.60;60.20;;;;;;9184314;19;20383;-65
2022/06/29 01:18:02;;;;;;;2.53;1.30;;;18.60;60.30;;;;;;9178340;19;20014;-65
2022/06/29 01:21:11;;;;;;;4.70;1.45;;;18.50;60.30;;;;;;9183465;19;20052;-66
2022/06/29 01:24:18;;;;;;;2.72;1.58;;;18.50;60.40;;;;;;9179407;19;20014;-65
2022/06/29 01:27:24;;;;;;;5.18;1.65;;;18.50;60.40;;;;;;9182949;19;20011;-66
2022/06/29 01:30:30;;;;;;;4.60;1.60;;;18.50;60.50;;;;;;9184000;19;20368;-66
2022/06/29 01:33:35;;;;;;;3.03;1.35;;;18.40;60.50;;;;;;9181510;19;20356;-64
2022/06/29 01:36:39;;;;;;;5.68;1.65;;;18.40;60.60;;;;;;9182377;19;20018;-65
2022/06/29 01:39:47;;;;;;;3.45;1.80;;;18.40;60.60;;;;;;9182833;19;20007;-66
2022/06/29 01:42:52;;;;;;;3.92;1.40;;;18.30;60.70;;;;;;9180470;19;20011;-65
2022/06/29 01:45:57;;;;;;;3.70;1.70;;;18.30;61.30;;;;;;9181766;19;20025;-66
2022/06/29 01:49:02;;;;;;;6.32;1.90;;;18.30;60.70;;;;;;9182149;19;20026;-66
2022/06/29 01:52:08;;;;;;;6.13;1.85;;;18.30;60.80;;;;;;9181821;19;20111;-66
2022/06/29 01:55:16;;;;;;;2.97;1.77;;;18.30;60.80;;;;;;9182922;19;20060;-65
2022/06/29 01:58:22;;;;;;;4.55;1.60;;;18.20;60.90;;;;;;9182629;19;20017;-66
2022/06/29 02:01:27;;;;;;;3.85;1.73;;;18.20;60.90;;;;;;9181658;19;20018;-67
2022/06/29 02:04:32;;;;;;;5.32;1.80;;;18.20;60.90;;;;;;9178215;19;20049;-64
2022/06/29 02:07:37;;;;;;;6.40;1.90;;;18.20;61.00;;;;;;9182194;19;20011;-65
2022/06/29 02:10:45;;;;;;;3.45;1.80;;;18.20;61.10;;;;;;9182401;19;20006;-66
2022/06/29 02:13:50;;;;;;;4.25;1.73;;;18.10;61.10;;;;;;9179495;19;20018;-65
2022/06/29 02:16:55;;;;;;;13.40;2.20;;;18.10;61.20;;;;;;9175768;19;20040;-65
2022/06/29 02:20:00;;;;;;;6.20;1.80;;;18.10;61.20;;;;;;9180153;19;20021;-65
2022/06/29 02:23:05;;;;;;;4.10;2.10;;;18.10;61.30;;;;;;9178787;19;20021;-65
2022/06/29 02:26:13;;;;;;;3.33;1.80;;;18.10;61.40;;;;;;9178796;19;20357;-64
2022/06/29 02:29:18;;;;;;;5.10;1.90;;;18.00;61.40;;;;;;9179663;19;20014;-65
2022/06/29 02:35:43;;;;;;;7.28;2.53;;;18.00;61.50;;;;;;9177729;19;20022;-66
2022/06/29 02:38:48;;;;;;;2.95;2.00;;;18.00;61.60;;;;;;9177319;19;20480;-65
2022/06/29 02:41:55;;;;;;;3.78;1.92;;;18.00;61.60;;;;;;9178126;19;20353;-65
2022/06/29 02:45:00;;;;;;;4.65;2.30;;;18.00;61.70;;;;;;9179080;19;20015;-65
2022/06/29 02:48:06;;;;;;;5.82;1.98;;;17.90;61.70;;;;;;9180218;19;20382;-66
2022/06/29 02:51:11;;;;;;;4.88;1.90;;;17.90;61.80;;;;;;9178197;19;20033;-65
2022/06/29 02:54:16;;;;;;;4.70;1.80;;;17.90;61.80;;;;;;9177220;19;20052;-66
2022/06/29 02:57:24;;;;;;;4.05;1.90;;;17.80;61.90;;;;;;9177296;19;20017;-65
2022/06/29 03:00:29;;;;;;;3.80;2.00;;;17.80;61.90;;;;;;9180220;19;20015;-65
2022/06/29 03:03:35;;;;;;;2.85;2.13;;;17.80;61.90;;;;;;9178757;19;20014;-65
2022/06/29 03:06:40;;;;;;;2.78;1.83;;;17.80;62.10;;;;;;9177544;19;20011;-65
2022/06/29 03:09:45;;;;;;;6.57;2.40;;;17.80;62.10;;;;;;9177440;19;20015;-65
2022/06/29 03:12:55;;;;;;;13.02;2.20;;;17.80;62.30;;;;;;9177586;19;20380;-65
2022/06/29 03:16:00;;;;;;;5.15;2.60;;;17.80;62.30;;;;;;9179142;19;20014;-65
2022/06/29 03:19:05;;;;;;;2.78;2.22;;;17.80;62.30;;;;;;9179653;19;20015;-65
2022/06/29 03:22:11;;;;;;;7.60;2.28;;;17.70;62.30;;;;;;9177201;19;20022;-64
2022/06/29 03:25:16;;;;;;;6.07;2.90;;;17.70;62.50;;;;;;9177121;19;20019;-64
2022/06/29 03:28:23;;;;;;;5.05;2.10;;;17.60;62.50;;;;;;9177930;19;20017;-64
2022/06/29 03:31:28;;;;;;;5.18;2.08;;;17.60;62.50;;;;;;9178034;19;20060;-65
2022/06/29 03:34:33;;;;;;;4.03;2.42;;;17.60;62.50;;;;;;9177038;19;20025;-64
2022/06/29 03:37:38;;;;;;;4.40;2.30;;;17.60;62.60;;;;;;9177569;19;20010;-65
2022/06/29 03:40:43;;;;;;;6.00;2.60;;;17.50;62.70;;;;;;9178697;19;20025;-67
2022/06/29 03:43:51;;;;;;;2.63;2.17;;;17.50;62.70;;;;;;9176607;19;20348;-65
2022/06/29 03:46:56;;;;;;;3.58;2.40;;;17.50;62.80;;;;;;9177853;19;20424;-65
2022/06/29 03:50:01;;;;;;;4.90;2.47;;;17.40;62.80;;;;;;9177916;19;20015;-66
2022/06/29 03:53:06;;;;;;;4.78;2.58;;;17.40;62.80;;;;;;9177605;19;20018;-66
2022/06/29 03:56:12;;;;;;;5.22;2.38;;;17.40;62.90;;;;;;9178277;19;20025;-66
2022/06/29 03:59:20;;;;;;;4.63;2.47;;;17.40;63.00;;;;;;9178235;19;20014;-64
2022/06/29 04:02:25;;;;;;;4.00;2.15;;;17.30;63.00;;;;;;9176254;19;20010;-65
2022/06/29 04:05:30;;;;;;;4.18;2.60;;;17.30;63.10;;;;;;9175114;19;20015;-65
2022/06/29 04:08:35;;;;;;;4.25;2.42;;;17.30;63.10;;;;;;9184495;19;20376;-66
2022/06/29 04:11:52;;;;;;;6.45;2.63;;;17.30;63.20;;;;;;9187077;19;20506;-66
2022/06/29 04:15:00;;;;;;;4.82;2.30;;;17.30;63.30;;;;;;9186219;19;20026;-65
2022/06/29 04:18:06;;;;;;;4.00;2.50;;;17.30;63.50;;;;;;9180433;19;20018;-65
2022/06/29 04:21:11;;;;;;;4.22;2.53;;;17.20;63.30;;;;;;9184527;19;20007;-65
2022/06/29 04:24:16;;;;;;;3.67;2.58;;;17.20;63.40;;;;;;9185960;19;20017;-65
2022/06/29 04:27:21;;;;;;;3.95;2.40;;;17.20;63.50;;;;;;9184290;19;20018;-66
2022/06/29 04:30:29;;;;;;;5.20;2.25;;;17.20;63.60;;;;;;9184377;19;20090;-65
2022/06/29 04:33:34;;;;;;;3.80;2.47;;;17.20;63.70;;;;;;9185464;19;20030;-65
2022/06/29 04:36:39;;;;;;;8.60;2.33;;;17.20;63.70;;;;;;9183415;19;20030;-64
2022/06/29 04:39:44;;;;;;;3.20;2.70;;;17.20;63.80;;;;;;9183263;19;20015;-65
2022/06/29 04:42:49;;;;;;;6.05;3.15;;;17.10;63.80;;;;;;9183695;19;20015;-65
2022/06/29 04:49:14;;;;;;;4.10;2.53;;;17.10;63.90;;;;;;9185278;19;20010;-64
2022/06/29 04:52:19;;;;;;;3.92;2.50;;;17.10;64.00;;;;;;9183723;19;20018;-64
2022/06/29 04:55:28;;;;;;;5.97;3.03;;;17.10;63.90;;;;;;9182475;19;20018;-64
2022/06/29 04:58:33;;;;;;;5.03;3.15;;;17.10;64.00;;;;;;9184710;19;20016;-64
2022/06/29 05:01:41;;;;;;;4.82;3.08;;;17.10;64.10;;;;;;9184251;19;20014;-63
2022/06/29 05:04:48;;;;;;;7.60;3.20;;;17.10;64.30;;;;;;9180048;19;20021;-64
2022/06/29 05:07:53;;;;;;;6.70;3.03;;;17.10;64.30;;;;;;9184221;19;20033;-66
2022/06/29 05:10:58;;;;;;;5.55;3.00;;;17.10;64.40;;;;;;9183675;19;20018;-66
2022/06/29 05:14:03;;;;;;;4.85;3.03;;;17.10;64.40;;;;;;9184174;19;20612;-67
2022/06/29 05:17:11;;;;;;;6.13;3.78;;;17.10;64.40;;;;;;9179485;19;20033;-66
2022/06/29 05:20:17;;;;;;;5.95;3.15;;;17.10;64.50;;;;;;9182082;19;20500;-65
2022/06/29 05:23:22;;;;;;;9.18;3.42;;;17.10;64.50;;;;;;9181057;19;20353;-66
2022/06/29 05:26:27;;;;;;;3.42;3.13;;;17.20;64.60;;;;;;9180056;19;20017;-66
2022/06/29 05:29:32;;;;;;;4.70;3.20;;;17.20;64.70;;;;;;9181561;19;20007;-67
2022/06/29 05:32:39;;;;;;;3.17;2.78;;;17.20;64.80;;;;;;9178291;19;20026;-65
2022/06/29 05:35:44;;;;;;;5.18;3.28;;;17.30;65.50;;;;;;9180939;19;20025;-66
2022/06/29 05:38:49;;;;;;;7.53;3.15;;;17.30;64.90;;;;;;9182349;19;20021;-66
2022/06/29 05:41:54;;;;;;;6.85;3.50;;;17.40;65.00;;;;;;9178949;19;20038;-66
2022/06/29 05:44:59;;;;;;;3.75;2.80;;;17.40;65.00;;;;;;9179135;19;20023;-66
2022/06/29 05:48:08;;;;;;;5.03;3.00;;;17.50;65.70;;;;;;9182392;19;20894;-66
2022/06/29 05:51:12;;;;;;;5.50;3.00;;;17.60;65.10;;;;;;9183064;19;20014;-66
2022/06/29 05:54:18;;;;;;;7.13;3.17;;;17.80;65.10;;;;;;9182249;19;20027;-66
2022/06/29 05:57:23;;;;;;;5.40;3.08;;;17.90;65.10;;;;;;9180281;19;20018;-66
2022/06/29 06:00:28;;;;;;;4.80;2.65;;;18.10;65.10;;;;;;9181579;19;20317;-66
2022/06/29 06:03:35;;;;;;;4.20;2.70;;;18.20;65.00;;;;;;9179192;19;20070;-66
2022/06/29 06:06:40;;;;;;;4.53;2.85;;;18.40;65.10;;;;;;9177573;19;20078;-67
2022/06/29 06:09:45;;;;;;;6.35;3.17;;;18.60;65.00;;;;;;9180296;19;20103;-67
2022/06/29 06:12:51;;;;;;;5.30;2.60;;;18.80;65.00;;;;;;9172667;19;20022;-67
2022/06/29 06:15:56;;;;;;;6.75;3.30;;;19.00;64.90;;;;;;9173616;19;20021;-66
2022/06/29 06:19:10;;;;;;;4.57;2.42;;;19.10;64.80;;;;;;9174164;19;20034;-67
2022/06/29 06:22:16;;;;;;;7.10;2.58;;;19.30;64.70;;;;;;9171153;19;20022;-67
2022/06/29 06:25:21;;;;;;;6.18;2.30;;;19.50;64.60;;;;;;9175320;19;20026;-67
2022/06/29 06:28:26;;;;;;;3.63;2.20;;;19.70;64.50;;;;;;9174471;19;20026;-66
2022/06/29 06:31:37;;;;;;;3.63;2.40;;;19.90;64.30;;;;;;9175915;19;20035;-66
2022/06/29 06:34:45;;;;;;;5.32;2.45;;;20.10;64.20;;;;;;9177344;19;20023;-66
2022/06/29 06:37:51;;;;;;;7.25;2.67;;;20.30;64.10;;;;;;9178650;19;20502;-66
2022/06/29 06:44:13;;;;;;;4.30;2.58;;;20.70;63.90;;;;;;9175323;19;20022;-66
2022/06/29 06:47:18;;;;;;;4.55;2.28;;;20.90;63.80;;;;;;9178026;19;20026;-67
2022/06/29 06:50:26;;;;;;;6.03;2.42;;;21.10;63.60;;;;;;9179261;19;20037;-65
2022/06/29 06:53:31;;;;;;;6.50;2.15;;;21.30;63.60;;;;;;9174684;19;20015;-67
2022/06/29 06:56:36;;;;;;;5.70;2.03;;;21.50;63.40;;;;;;9178931;19;20019;-66
2022/06/29 06:59:41;;;;;;;3.88;2.25;;;21.70;63.20;;;;;;9180400;19;20360;-70
2022/06/29 07:02:46;;;;;;;4.55;2.38;;;21.90;63.00;;;;;;9175647;19;20021;-71
2022/06/29 07:05:54;;;;;;;18.17;2.17;;;22.10;62.80;;;;;;9176223;19;20014;-68
2022/06/29 07:08:59;;;;;;;7.82;1.80;;;22.30;62.60;;;;;;9176351;19;20022;-65
2022/06/29 07:12:04;;;;;;;4.85;1.92;;;22.50;62.40;;;;;;9179773;19;20018;-67
2022/06/29 07:15:10;;;;;;;5.43;1.90;;;22.70;62.20;;;;;;9176633;19;20086;-66
2022/06/29 07:18:15;;;;;;;5.57;2.13;;;23.00;62.10;;;;;;9170583;19;20456;-65
2022/06/29 07:21:23;;;;;;;6.40;1.90;;;23.10;61.90;;;;;;9177991;19;20125;-68
2022/06/29 07:24:28;;;;;;;5.10;1.50;;;23.40;61.70;;;;;;9172510;19;20026;-68
2022/06/29 07:27:33;;;;;;;2.95;1.65;;;23.60;61.50;;;;;;9173083;19;20014;-67
2022/06/29 07:30:38;;;;;;;5.95;1.38;;;23.80;61.30;;;;;;9177622;19;20029;-67
2022/06/29 07:33:43;;;;;;;6.55;1.70;;;24.00;60.80;;;;;;9176763;19;20078;-67
2022/06/29 07:36:57;;;;;;;3.63;1.13;;;24.20;60.60;;;;;;9176682;19;20026;-68
2022/06/29 07:40:02;;;;;;;3.53;1.65;;;24.50;60.00;;;;;;9174716;19;20029;-67
2022/06/29 07:43:17;;;;;;;2.83;1.17;;;24.60;59.70;;;;;;9179257;19;20018;-69
2022/06/29 07:46:22;;;;;;;1.80;1.23;;;24.90;59.40;;;;;;9182943;19;20022;-68
2022/06/29 07:49:28;;;;;;;2.45;1.40;;;25.10;59.70;;;;;;9181737;19;20018;-68
2022/06/29 07:52:36;;;;;;;1.95;1.00;;;25.30;58.80;;;;;;9182337;19;20369;-68
2022/06/29 07:55:44;;;;;;;2.88;1.20;;;25.40;58.80;;;;;;9182073;19;20056;-68
2022/06/29 07:58:49;;;;;;;1.75;1.05;;;25.60;58.20;;;;;;9179956;19;20022;-68
2022/06/29 08:01:54;;;;;;;4.18;1.42;;;25.80;58.00;;;;;;9181929;19;20038;-67
2022/06/29 08:05:01;;;;;;;1.15;1.00;;;26.00;57.70;;;;;;9178986;19;20011;-66
2022/06/29 08:08:12;;;;;;;4.32;1.20;;;26.10;57.40;;;;;;9179281;19;20385;-67
2022/06/29 08:11:17;;;;;;;1.95;1.20;;;26.30;57.10;;;;;;9180729;19;20034;-67
2022/06/29 08:14:22;;;;;;;4.28;1.33;;;26.40;57.00;;;;;;9180481;19;20042;-67
2022/06/29 08:17:27;;;;;;;4.35;1.50;;;26.50;56.70;;;;;;9179997;19;20050;-68
2022/06/29 08:20:37;;;;;;;5.28;1.40;;;26.70;56.50;;;;;;9179314;19;20019;-72
2022/06/29 08:23:45;;;;;;;3.53;1.58;;;26.80;56.20;;;;;;9181363;19;20022;-66
2022/06/29 08:26:50;;;;;;;2.40;1.13;;;26.90;55.80;;;;;;9178295;19;20014;-69
2022/06/29 08:30:16;;;;;;;5.82;1.27;;;27.00;55.80;;;;;;9179227;19;20018;-71
2022/06/29 08:33:21;;;;;;;4.93;1.58;;;27.20;55.50;;;;;;9180229;19;20018;-69
2022/06/29 08:36:27;;;;;;;3.22;1.40;;;27.30;55.30;;;;;;9181383;19;20022;-70
2022/06/29 08:39:54;;;;;;;4.13;1.58;;;27.50;55.00;;;;;;9180837;19;20010;-71
2022/06/29 08:42:59;;;;;;;5.82;1.42;;;27.60;54.60;;;;;;9179414;19;20019;-72
2022/06/29 08:46:14;;;;;;;3.90;1.35;;;27.70;54.50;;;;;;9180672;19;20019;-72
2022/06/29 08:49:19;;;;;;;3.05;1.40;;;27.70;54.20;;;;;;9179767;19;20483;-71
2022/06/29 08:52:27;;;;;;;3.20;1.73;;;27.70;54.10;;;;;;9177908;19;20011;-72
2022/06/29 08:55:39;;;;;;;7.20;1.27;;;27.70;53.80;;;;;;9177545;19;20015;-72
2022/06/29 08:58:45;;;;;;;6.35;1.17;;;27.70;53.60;;;;;;9179446;19;20025;-67
2022/06/29 09:01:51;;;;;;;10.48;1.45;;;27.70;53.60;;;;;;9177890;19;20014;-67
2022/06/29 09:04:57;;;;;;;2.70;1.42;;;27.70;53.50;;;;;;9179923;19;20067;-67
2022/06/29 09:08:02;;;;;;;1.67;1.17;;;27.70;53.50;;;;;;9183252;19;20014;-67
2022/06/29 09:11:28;;;;;;;2.83;1.42;;;27.60;53.20;;;;;;9179624;19;20023;-66
2022/06/29 09:14:33;;;;;;;2.42;1.30;;;27.60;52.80;;;;;;9182705;19;20015;-67
2022/06/29 09:17:40;;;;;;;1.67;1.30;;;27.50;53.00;;;;;;9179959;19;20011;-69
2022/06/29 09:20:45;;;;;;;2.97;1.50;;;27.50;52.90;;;;;;9184315;19;20515;-69
2022/06/29 09:23:51;;;;;;;3.80;1.45;;;27.40;52.70;;;;;;9182784;19;20146;-67
2022/06/29 09:27:00;;;;;;;4.50;1.20;;;27.30;52.70;;;;;;9183012;19;20015;-66
2022/06/29 09:30:06;;;;;;;6.45;1.40;;;27.30;52.70;;;;;;9185741;19;20011;-70
2022/06/29 09:33:11;;;;;;;3.55;1.38;;;27.20;52.80;;;;;;9185228;19;20037;-71
2022/06/29 09:36:18;;;;;;;5.78;1.52;;;27.20;52.70;;;;;;9185423;19;20019;-69
2022/06/29 09:39:34;;;;;;;9.07;1.20;;;27.20;52.70;;;;;;9183165;19;20481;-69
2022/06/29 09:42:42;;;;;;;7.22;2.03;;;27.20;52.60;;;;;;9183329;19;20021;-69
2022/06/29 09:45:48;;;;;;;6.00;1.50;;;27.20;52.70;;;;;;9183615;19;20030;-68
2022/06/29 09:48:54;;;;;;;2.38;1.40;;;27.20;52.80;;;;;;9182658;19;20018;-68
2022/06/29 09:52:00;;;;;;;2.00;1.30;;;27.30;52.80;;;;;;9178505;19;20427;-68
2022/06/29 09:55:10;;;;;;;3.75;1.20;;;27.30;52.70;;;;;;9180008;19;20376;-67
2022/06/29 09:58:22;;;;;;;6.97;1.50;;;27.30;52.70;;;;;;9177720;19;20014;-68
2022/06/29 10:04:46;;;;;;;4.10;2.03;;;27.40;52.40;;;;;;9176000;19;20018;-71
2022/06/29 10:07:53;;;;;;;3.08;1.67;;;27.40;52.30;;;;;;9173207;19;20033;-70
2022/06/29 10:13:39;;;;;;;4.85;1.33;;;27.40;52.10;;;;;;9173401;19;20017;-68
2022/06/29 10:14:46;;;;;;;2.20;1.50;;;27.40;51.90;;;;;;9176075;19;20022;-68
2022/06/29 10:18:00;;;;;;;3.92;1.45;;;27.30;51.90;;;;;;9168523;19;20003;-66
2022/06/29 10:21:15;;;;;;;2.70;1.40;;;27.30;52.50;;;;;;9173493;19;20340;-67
2022/06/29 10:24:20;;;;;;;3.72;1.65;;;27.20;51.90;;;;;;9174325;19;20020;-69
2022/06/29 10:27:25;;;;;;;3.63;1.35;;;27.10;52.70;;;;;;9175984;19;20019;-67
2022/06/29 10:30:33;;;;;;;5.30;1.40;;;27.00;52.10;;;;;;9171107;19;20384;-67
2022/06/29 10:33:38;;;;;;;3.50;1.90;;;26.90;52.00;;;;;;9176560;19;20384;-68
2022/06/29 10:37:00;;;;;;;3.03;1.38;;;26.90;52.20;;;;;;9173292;19;20026;-68
2022/06/29 10:40:10;;;;;;;6.97;1.50;;;26.80;52.10;;;;;;9172150;19;20019;-70
2022/06/29 10:43:22;;;;;;;2.55;1.50;;;26.80;52.40;;;;;;9171689;19;20022;-70
2022/06/29 10:46:51;;;;;;;4.68;2.35;;;26.80;52.30;;;;;;9169613;19;20029;-68
2022/06/29 10:50:25;;;;;;;4.47;1.70;;;26.70;52.30;;;;;;9174604;19;20018;-70
2022/06/29 10:53:30;;;;;;;4.75;1.33;;;26.70;52.40;;;;;;9172704;19;20488;-68
2022/06/29 10:56:35;;;;;;;4.28;1.40;;;26.70;52.50;;;;;;9174085;19;20013;-68
2022/06/29 10:59:41;;;;;;;3.35;1.50;;;26.60;52.50;;;;;;9172726;19;20015;-69
2022/06/29 11:02:49;;;;;;;4.50;1.77;;;26.60;52.50;;;;;;9170747;19;20026;-70
2022/06/29 11:12:30;;;;;;;2.22;1.48;;;26.60;52.50;;;;;;9175943;19;20073;-71
2022/06/29 11:15:45;;;;;;;2.78;1.55;;;26.50;52.50;;;;;;9176028;19;20017;-69
2022/06/29 11:18:58;;;;;;;3.85;1.50;;;26.50;52.50;;;;;;9177344;19;20026;-67
2022/06/29 11:22:18;;;;;;;8.70;2.28;;;26.50;52.50;;;;;;9181269;19;20014;-67
2022/06/29 11:25:26;;;;;;;8.55;1.95;;;26.50;52.50;;;;;;9181957;19;20025;-69
2022/06/29 11:28:33;;;;;;;8.43;2.22;;;26.50;52.50;;;;;;9178946;19;20015;-69
2022/06/29 11:31:44;;;;;;;3.40;1.88;;;26.50;52.60;;;;;;9178906;19;20019;-68
2022/06/29 11:35:00;;;;;;;4.05;2.20;;;26.60;52.70;;;;;;9185496;19;20021;-69
2022/06/29 11:38:05;;;;;;;5.90;1.90;;;26.60;52.70;;;;;;9183746;19;20047;-69
2022/06/29 11:41:14;;;;;;;7.00;1.88;;;26.60;52.70;;;;;;9185063;19;20014;-69
2022/06/29 11:44:31;;;;;;;3.47;1.80;;;26.50;52.60;;;;;;9187118;19;20014;-68
2022/06/29 11:47:36;;;;;;;3.67;1.65;;;26.60;52.70;;;;;;9189340;19;20345;-67
2022/06/29 11:50:51;;;;;;;3.28;1.80;;;26.60;52.70;;;;;;9183660;19;20011;-67
2022/06/29 11:54:01;;;;;;;2.47;1.70;;;26.60;52.70;;;;;;9184127;19;20014;-66
2022/06/29 11:57:10;;;;;;;4.75;1.95;;;26.70;52.80;;;;;;9184788;19;20014;-68
2022/06/29 12:00:17;;;;;;;4.05;1.90;;;26.70;53.00;;;;;;9186249;19;20018;-68
2022/06/29 12:03:22;;;;;;;2.33;1.80;;;26.70;52.90;;;;;;9185310;19;20082;-68
2022/06/29 12:06:32;;;;;;;7.35;2.08;;;26.80;52.90;;;;;;9180824;19;20022;-71
2022/06/29 12:09:38;;;;;;;5.82;2.25;;;26.80;52.90;;;;;;9183278;19;20353;-68
2022/06/29 12:12:43;;;;;;;5.63;2.80;;;26.90;52.90;;;;;;9184226;19;20014;-67
2022/06/29 12:15:48;;;;;;;4.90;2.50;;;27.00;52.90;;;;;;9186697;19;20479;-69
2022/06/29 12:18:53;;;;;;;2.92;1.60;;;27.10;52.70;;;;;;9184268;19;20090;-68
2022/06/29 12:22:01;;;;;;;5.57;1.90;;;27.30;52.80;;;;;;9186829;19;20033;-69
2022/06/29 12:25:07;;;;;;;3.60;2.10;;;27.40;52.50;;;;;;9185554;19;20018;-69
2022/06/29 12:28:12;;;;;;;5.07;1.95;;;27.60;52.60;;;;;;9184248;19;20011;-68
2022/06/29 12:31:17;;;;;;;2.88;1.73;;;27.70;52.40;;;;;;9187112;19;20014;-69
2022/06/29 12:34:22;;;;;;;8.77;1.92;;;27.90;52.40;;;;;;9186342;19;20025;-70
2022/06/29 12:37:36;;;;;;;3.05;1.77;;;28.10;52.30;;;;;;9185523;19;20018;-68
2022/06/29 12:40:42;;;;;;;10.80;1.95;;;28.30;52.10;;;;;;9184543;19;20024;-66
2022/06/29 12:43:47;;;;;;;4.55;1.80;;;28.40;52.00;;;;;;9186354;19;20039;-66
2022/06/29 12:46:52;;;;;;;5.63;2.00;;;28.60;51.90;;;;;;9186753;19;20093;-67
2022/06/29 12:49:57;;;;;;;2.25;1.70;;;28.70;51.50;;;;;;9182759;19;20036;-68
2022/06/29 12:53:06;;;;;;;6.57;1.80;;;28.80;51.20;;;;;;9185397;19;20022;-66
2022/06/29 12:56:11;;;;;;;3.30;1.73;;;28.90;51.00;;;;;;9186938;19;20487;-67
2022/06/29 12:59:16;;;;;;;4.55;1.85;;;29.00;51.00;;;;;;9184141;19;20022;-69
2022/06/29 13:02:23;;;;;;;2.50;1.80;;;29.10;50.80;;;;;;9182288;19;20045;-69
2022/06/29 13:05:28;;;;;;;8.00;1.70;;;29.30;50.70;;;;;;9180564;19;20014;-69
2022/06/29 13:08:36;;;;;;;2.53;1.80;;;29.40;50.50;;;;;;9183438;19;20021;-70
2022/06/29 13:11:41;;;;;;;3.35;1.60;;;29.40;50.20;;;;;;9182802;19;20025;-69
2022/06/29 13:14:47;;;;;;;3.15;1.45;;;29.50;50.30;;;;;;9183331;19;20048;-69
2022/06/29 13:17:52;;;;;;;4.13;1.73;;;29.60;50.10;;;;;;9179154;19;20018;-69
2022/06/29 13:20:57;;;;;;;2.78;1.52;;;29.70;49.90;;;;;;9182103;19;20018;-71
2022/06/29 13:24:06;;;;;;;7.90;1.48;;;29.80;49.90;;;;;;9177798;19;20014;-72
2022/06/29 13:27:11;;;;;;;4.07;1.50;;;29.80;49.60;;;;;;9176620;19;20011;-72
2022/06/29 13:30:17;;;;;;;4.32;1.70;;;29.90;49.70;;;;;;9173967;19;20018;-71
2022/06/29 13:33:22;;;;;;;3.45;1.50;;;29.90;49.50;;;;;;9172593;19;20773;-71
2022/06/29 13:36:27;;;;;;;3.47;1.50;;;29.90;49.50;;;;;;9175078;19;20102;-68
2022/06/29 13:39:34;;;;;;;3.28;1.52;;;29.90;49.50;;;;;;9175499;19;20007;-69
2022/06/29 13:42:39;;;;;;;2.65;1.55;;;29.90;49.20;;;;;;9179327;19;20018;-69
2022/06/29 13:46:04;;;;;;;1.40;1.27;;;29.90;49.00;;;;;;9177995;19;20037;-68
2022/06/29 13:49:10;;;;;;;3.20;1.40;;;29.90;48.90;;;;;;9177608;19;20772;-68
2022/06/29 13:52:15;;;;;;;2.53;1.40;;;29.90;48.80;;;;;;9178458;19;20337;-69
2022/06/29 13:55:23;;;;;;;6.65;1.75;;;29.80;48.70;;;;;;9179782;19;20022;-66
2022/06/29 13:58:28;;;;;;;2.40;1.23;;;29.80;48.60;;;;;;9179375;19;20018;-67
2022/06/29 14:01:33;;;;;;;2.35;1.38;;;29.80;48.80;;;;;;9179611;19;20011;-68
2022/06/29 14:04:43;;;;;;;2.08;1.70;;;29.80;48.90;;;;;;9178793;19;20017;-66
2022/06/29 14:07:48;;;;;;;2.22;1.20;;;29.70;49.00;;;;;;9181386;19;20033;-67
2022/06/29 14:11:16;;;;;;;3.88;1.60;;;29.70;48.80;;;;;;9177141;19;20487;-69
2022/06/29 14:14:21;;;;;;;1.25;1.10;;;29.70;48.50;;;;;;9180027;19;20033;-68
2022/06/29 14:17:27;;;;;;;3.13;1.48;;;29.60;48.40;;;;;;9176746;19;20018;-66
2022/06/29 14:20:35;;;;;;;2.50;1.48;;;29.60;48.60;;;;;;9181815;19;20089;-66
2022/06/29 14:23:40;;;;;;;4.25;1.60;;;29.50;48.60;;;;;;9180267;19;20022;-67
2022/06/29 14:26:48;;;;;;;2.20;1.30;;;29.50;48.60;;;;;;9180727;19;20018;-67
2022/06/29 14:29:53;;;;;;;2.97;1.23;;;29.50;48.40;;;;;;9179540;19;20352;-66
2022/06/29 14:32:58;;;;;;;3.33;1.88;;;29.50;48.40;;;;;;9181501;19;20033;-68
2022/06/29 14:36:03;;;;;;;1.25;1.15;;;29.50;48.70;;;;;;9180712;19;20030;-68
2022/06/29 14:39:09;;;;;;;3.83;1.60;;;29.50;48.10;;;;;;9181163;19;20602;-67
2022/06/29 14:42:19;;;;;;;3.55;1.10;;;29.50;48.10;;;;;;9181683;19;20040;-67
2022/06/29 14:45:24;;;;;;;3.17;1.25;;;29.50;48.00;;;;;;9180991;19;20010;-68
2022/06/29 14:48:29;;;;;;;2.97;1.63;;;29.50;48.10;;;;;;9180366;19;20048;-67
2022/06/29 14:51:35;;;;;;;1.83;1.30;;;29.50;47.90;;;;;;9175453;19;20015;-67
2022/06/29 14:54:40;;;;;;;1.48;1.00;;;29.50;47.70;;;;;;9176942;19;20015;-67
2022/06/29 14:57:49;;;;;;;3.45;1.67;;;29.50;47.80;;;;;;9178724;19;20011;-69
2022/06/29 15:00:54;;;;;;;3.20;1.30;;;29.50;47.60;;;;;;9179351;19;20018;-68
2022/06/29 15:03:59;;;;;;;3.25;1.42;;;29.50;47.60;;;;;;9179189;19;20019;-68
2022/06/29 15:07:05;;;;;;;8.38;1.90;;;29.40;47.60;;;;;;9180497;19;20048;-67
2022/06/29 15:10:10;;;;;;;3.35;1.30;;;29.40;47.50;;;;;;9178395;19;20014;-68
2022/06/29 15:13:18;;;;;;;2.63;1.40;;;29.40;47.60;;;;;;9174371;19;20096;-69
2022/06/29 15:16:23;;;;;;;3.42;1.77;;;29.40;47.70;;;;;;9164524;19;20018;-66
2022/06/29 15:19:41;;;;;;;2.80;1.77;;;29.40;47.80;;;;;;9168636;19;20388;-66
2022/06/29 15:22:46;;;;;;;4.72;1.40;;;29.40;47.70;;;;;;9174272;19;20398;-70
2022/06/29 15:25:51;;;;;;;4.75;1.20;;;29.40;47.70;;;;;;9173237;19;20483;-69
2022/06/29 15:28:59;;;;;;;6.53;1.25;;;29.40;47.60;;;;;;9168081;19;20757;-66
2022/06/29 15:32:04;;;;;;;4.18;1.60;;;29.50;47.50;;;;;;9169019;19;20329;-67
2022/06/29 15:41:45;;;;;;;4.80;1.30;;;29.50;47.60;;;;;;9170612;19;20364;-70
2022/06/29 15:44:53;;;;;;;2.22;1.30;;;29.50;47.50;;;;;;9176459;19;20010;-69
2022/06/29 15:47:58;;;;;;;4.57;1.42;;;29.50;47.40;;;;;;9174172;19;20086;-68
2022/06/29 15:51:03;;;;;;;6.47;1.70;;;29.50;47.40;;;;;;9172372;19;20360;-68
2022/06/29 15:57:26;;;;;;;2.28;1.52;;;29.50;47.40;;;;;;9178076;19;20025;-70
2022/06/29 16:00:33;;;;;;;2.60;1.77;;;29.50;47.40;;;;;;9173543;19;20019;-68
2022/06/29 16:03:38;;;;;;;4.00;1.65;;;29.50;47.20;;;;;;9180926;19;20025;-66
2022/06/29 16:06:43;;;;;;;7.00;1.90;;;29.50;47.30;;;;;;9179815;19;20010;-68
2022/06/29 16:09:50;;;;;;;8.65;1.73;;;29.50;47.30;;;;;;9181790;19;20917;-65
2022/06/29 16:12:55;;;;;;;3.75;1.70;;;29.50;47.40;;;;;;9175341;19;20779;-64
2022/06/29 16:16:03;;;;;;;3.67;1.70;;;29.50;47.40;;;;;;9179345;19;20022;-68
2022/06/29 16:19:08;;;;;;;4.60;1.88;;;29.50;47.50;;;;;;9175839;19;20950;-70
2022/06/29 16:22:33;;;;;;;5.85;2.10;;;29.40;47.40;;;;;;9174950;19;20025;-67
2022/06/29 16:25:39;;;;;;;6.88;2.03;;;29.40;47.50;;;;;;9176309;19;20053;-68
2022/06/29 16:28:44;;;;;;;6.03;2.05;;;29.40;47.50;;;;;;9169929;19;20479;-67
2022/06/29 16:31:52;;;;;;;7.10;1.88;;;29.40;47.40;;;;;;9174133;19;20021;-69
2022/06/29 16:34:57;;;;;;;10.73;2.08;;;29.40;47.30;;;;;;9178241;19;20015;-71
2022/06/29 16:38:02;;;;;;;7.15;1.60;;;29.40;47.40;;;;;;9176642;19;20483;-67
2022/06/29 16:41:07;;;;;;;4.57;1.33;;;29.40;47.50;;;;;;9174503;19;20682;-68